sensor_id;sensor_type;location;lat;lon;timestamp;temperature;humidity
42019;DHT22;27703;51.980;5.848;2023-05-10T00:01:27;14.10;99.90
42019;DHT22;27703;51.980;5.848;2023-05-10T00:03:53;14.10;99.90
42019;DHT22;27703;51.980;5.848;2023-05-10T00:06:18;14.10;99.90
42019;DHT22;27703;51.980;5.848;2023-05-10T00:08:45;14.10;99.90
42019;DHT22;27703;51.980;5.848;2023-05-10T00:11:10;14.10;99.90
42019;DHT22;27703;51.980;5.848;2023-05-10T00:13:36;14.10;99.90
42019;DHT22;27703;51.980;5.848;2023-05-10T00:16:02;14.20;99.90
42019;DHT22;27703;51.980;5.848;2023-05-10T00:18:27;14.10;99.90
42019;DHT22;27703;51.980;5.848;2023-05-10T00:20:53;14.10;99.90
42019;DHT22;27703;51.980;5.848;2023-05-10T00:23:18;14.10;99.90
42019;DHT22;27703;51.980;5.848;2023-05-10T00:25:44;14.10;99.90
42019;DHT22;27703;51.980;5.848;2023-05-10T00:28:10;14.10;99.90
42019;DHT22;27703;51.980;5.848;2023-05-10T00:30:35;14.00;99.90
42019;DHT22;27703;51.980;5.848;2023-05-10T00:33:01;14.00;99.90
42019;DHT22;27703;51.980;5.848;2023-05-10T00:35:26;14.00;99.90
42019;DHT22;27703;51.980;5.848;2023-05-10T00:37:52;14.00;99.90
42019;DHT22;27703;51.980;5.848;2023-05-10T00:40:17;14.00;99.90
42019;DHT22;27703;51.980;5.848;2023-05-10T00:42:43;14.00;99.90
42019;DHT22;27703;51.980;5.848;2023-05-10T00:45:09;14.00;99.90
42019;DHT22;27703;51.980;5.848;2023-05-10T00:47:34;14.00;99.90
42019;DHT22;27703;51.980;5.848;2023-05-10T00:50:00;14.00;99.90
42019;DHT22;27703;51.980;5.848;2023-05-10T00:52:28;14.00;99.90
42019;DHT22;27703;51.980;5.848;2023-05-10T00:54:54;14.00;99.90
42019;DHT22;27703;51.980;5.848;2023-05-10T00:57:20;14.00;99.90
42019;DHT22;27703;51.980;5.848;2023-05-10T00:59:46;14.00;99.90
42019;DHT22;27703;51.980;5.848;2023-05-10T01:02:12;14.00;99.90
42019;DHT22;27703;51.980;5.848;2023-05-10T01:04:38;14.00;99.90
42019;DHT22;27703;51.980;5.848;2023-05-10T01:07:04;14.00;99.90
42019;DHT22;27703;51.980;5.848;2023-05-10T01:09:31;14.00;99.90
42019;DHT22;27703;51.980;5.848;2023-05-10T01:11:57;14.00;99.90
42019;DHT22;27703;51.980;5.848;2023-05-10T01:14:23;14.00;99.90
42019;DHT22;27703;51.980;5.848;2023-05-10T01:16:50;14.00;99.90
42019;DHT22;27703;51.980;5.848;2023-05-10T01:19:24;14.00;99.90
42019;DHT22;27703;51.980;5.848;2023-05-10T01:24:47;14.10;99.90
42019;DHT22;27703;51.980;5.848;2023-05-10T01:27:41;14.10;99.90
42019;DHT22;27703;51.980;5.848;2023-05-10T01:36:01;14.00;99.90
42019;DHT22;27703;51.980;5.848;2023-05-10T01:38:29;14.00;99.90
42019;DHT22;27703;51.980;5.848;2023-05-10T01:41:16;14.00;99.90
42019;DHT22;27703;51.980;5.848;2023-05-10T01:43:57;14.00;99.90
42019;DHT22;27703;51.980;5.848;2023-05-10T01:46:39;14.00;99.90
42019;DHT22;27703;51.980;5.848;2023-05-10T01:49:11;14.00;99.90
42019;DHT22;27703;51.980;5.848;2023-05-10T01:51:44;14.00;99.90
42019;DHT22;27703;51.980;5.848;2023-05-10T01:54:13;14.00;99.90
42019;DHT22;27703;51.980;5.848;2023-05-10T01:56:39;14.00;99.90
42019;DHT22;27703;51.980;5.848;2023-05-10T01:59:11;13.90;99.90
42019;DHT22;27703;51.980;5.848;2023-05-10T02:01:37;14.00;99.90
42019;DHT22;27703;51.980;5.848;2023-05-10T02:04:05;13.90;99.90
42019;DHT22;27703;51.980;5.848;2023-05-10T02:06:33;13.90;99.90
42019;DHT22;27703;51.980;5.848;2023-05-10T02:09:01;14.00;99.90
42019;DHT22;27703;51.980;5.848;2023-05-10T02:11:28;14.00;99.90
42019;DHT22;27703;51.980;5.848;2023-05-10T02:13:55;14.00;99.90
42019;DHT22;27703;51.980;5.848;2023-05-10T02:16:24;14.00;99.90
42019;DHT22;27703;51.980;5.848;2023-05-10T02:18:50;14.10;99.90
42019;DHT22;27703;51.980;5.848;2023-05-10T02:21:17;14.00;99.90
42019;DHT22;27703;51.980;5.848;2023-05-10T02:23:45;14.00;99.90
42019;DHT22;27703;51.980;5.848;2023-05-10T02:26:12;14.00;99.90
42019;DHT22;27703;51.980;5.848;2023-05-10T02:28:40;14.00;99.90
42019;DHT22;27703;51.980;5.848;2023-05-10T02:31:07;14.00;99.90
42019;DHT22;27703;51.980;5.848;2023-05-10T02:33:33;14.00;99.90
42019;DHT22;27703;51.980;5.848;2023-05-10T02:36:02;13.90;99.90
42019;DHT22;27703;51.980;5.848;2023-05-10T02:38:28;13.90;99.90
42019;DHT22;27703;51.980;5.848;2023-05-10T02:40:55;13.90;99.90
42019;DHT22;27703;51.980;5.848;2023-05-10T02:43:22;13.90;99.90
42019;DHT22;27703;51.980;5.848;2023-05-10T02:45:49;13.90;99.90
42019;DHT22;27703;51.980;5.848;2023-05-10T02:48:15;13.90;99.90
42019;DHT22;27703;51.980;5.848;2023-05-10T02:50:44;13.90;99.90
42019;DHT22;27703;51.980;5.848;2023-05-10T02:53:14;13.90;99.90
42019;DHT22;27703;51.980;5.848;2023-05-10T02:55:41;13.80;99.90
42019;DHT22;27703;51.980;5.848;2023-05-10T02:58:07;13.80;99.90
42019;DHT22;27703;51.980;5.848;2023-05-10T03:00:33;13.80;99.90
42019;DHT22;27703;51.980;5.848;2023-05-10T03:02:58;13.80;99.90
42019;DHT22;27703;51.980;5.848;2023-05-10T03:05:24;13.90;99.90
42019;DHT22;27703;51.980;5.848;2023-05-10T03:07:50;13.80;99.90
42019;DHT22;27703;51.980;5.848;2023-05-10T03:10:17;13.80;99.90
42019;DHT22;27703;51.980;5.848;2023-05-10T03:15:49;13.80;99.90
42019;DHT22;27703;51.980;5.848;2023-05-10T03:18:29;13.80;99.90
42019;DHT22;27703;51.980;5.848;2023-05-10T03:21:02;13.80;99.90
42019;DHT22;27703;51.980;5.848;2023-05-10T03:23:35;13.80;99.90
42019;DHT22;27703;51.980;5.848;2023-05-10T03:26:04;13.80;99.90
42019;DHT22;27703;51.980;5.848;2023-05-10T03:28:31;13.70;99.90
42019;DHT22;27703;51.980;5.848;2023-05-10T03:30:59;13.70;99.90
42019;DHT22;27703;51.980;5.848;2023-05-10T03:33:25;13.70;99.90
42019;DHT22;27703;51.980;5.848;2023-05-10T03:35:50;13.70;99.90
42019;DHT22;27703;51.980;5.848;2023-05-10T03:38:16;13.60;99.90
42019;DHT22;27703;51.980;5.848;2023-05-10T03:40:42;13.60;99.90
42019;DHT22;27703;51.980;5.848;2023-05-10T03:43:07;13.60;99.90
42019;DHT22;27703;51.980;5.848;2023-05-10T03:45:33;13.60;99.90
42019;DHT22;27703;51.980;5.848;2023-05-10T03:47:58;13.60;99.90
42019;DHT22;27703;51.980;5.848;2023-05-10T03:50:24;13.50;99.90
42019;DHT22;27703;51.980;5.848;2023-05-10T03:52:50;13.50;99.90
42019;DHT22;27703;51.980;5.848;2023-05-10T03:55:16;13.50;99.90
42019;DHT22;27703;51.980;5.848;2023-05-10T03:57:41;13.40;99.90
42019;DHT22;27703;51.980;5.848;2023-05-10T04:00:08;13.50;99.90
42019;DHT22;27703;51.980;5.848;2023-05-10T04:02:34;13.50;99.90
42019;DHT22;27703;51.980;5.848;2023-05-10T04:04:59;13.50;99.90
42019;DHT22;27703;51.980;5.848;2023-05-10T04:07:25;13.40;99.90
42019;DHT22;27703;51.980;5.848;2023-05-10T04:09:50;13.40;99.90
42019;DHT22;27703;51.980;5.848;2023-05-10T04:12:16;13.50;99.90
42019;DHT22;27703;51.980;5.848;2023-05-10T04:14:41;13.50;99.90
42019;DHT22;27703;51.980;5.848;2023-05-10T04:17:07;13.50;99.90
42019;DHT22;27703;51.980;5.848;2023-05-10T04:19:33;13.50;99.90
42019;DHT22;27703;51.980;5.848;2023-05-10T04:21:59;13.50;99.90
42019;DHT22;27703;51.980;5.848;2023-05-10T04:24:24;13.50;99.90
42019;DHT22;27703;51.980;5.848;2023-05-10T04:26:50;13.50;99.90
42019;DHT22;27703;51.980;5.848;2023-05-10T04:29:16;13.50;99.90
42019;DHT22;27703;51.980;5.848;2023-05-10T04:31:41;13.40;99.90
42019;DHT22;27703;51.980;5.848;2023-05-10T04:34:07;13.50;99.90
42019;DHT22;27703;51.980;5.848;2023-05-10T04:36:32;13.40;99.90
42019;DHT22;27703;51.980;5.848;2023-05-10T04:39:00;13.50;99.90
42019;DHT22;27703;51.980;5.848;2023-05-10T04:41:26;13.50;99.90
42019;DHT22;27703;51.980;5.848;2023-05-10T04:43:51;13.50;99.90
42019;DHT22;27703;51.980;5.848;2023-05-10T04:46:17;13.50;99.90
42019;DHT22;27703;51.980;5.848;2023-05-10T04:48:42;13.50;99.90
42019;DHT22;27703;51.980;5.848;2023-05-10T04:51:08;13.50;99.90
42019;DHT22;27703;51.980;5.848;2023-05-10T04:53:33;13.60;99.90
42019;DHT22;27703;51.980;5.848;2023-05-10T04:55:59;13.60;99.90
42019;DHT22;27703;51.980;5.848;2023-05-10T04:58:25;13.60;99.90
42019;DHT22;27703;51.980;5.848;2023-05-10T05:00:50;13.50;99.90
42019;DHT22;27703;51.980;5.848;2023-05-10T05:03:16;13.60;99.90
42019;DHT22;27703;51.980;5.848;2023-05-10T05:05:41;13.60;99.90
42019;DHT22;27703;51.980;5.848;2023-05-10T05:08:07;13.60;99.90
42019;DHT22;27703;51.980;5.848;2023-05-10T05:10:32;13.60;99.90
42019;DHT22;27703;51.980;5.848;2023-05-10T05:12:58;13.70;99.90
42019;DHT22;27703;51.980;5.848;2023-05-10T05:15:23;13.70;99.90
42019;DHT22;27703;51.980;5.848;2023-05-10T05:17:49;13.60;99.90
42019;DHT22;27703;51.980;5.848;2023-05-10T05:20:15;13.60;99.90
42019;DHT22;27703;51.980;5.848;2023-05-10T05:22:40;13.60;99.90
42019;DHT22;27703;51.980;5.848;2023-05-10T05:25:06;13.60;99.90
42019;DHT22;27703;51.980;5.848;2023-05-10T05:27:32;13.60;99.90
42019;DHT22;27703;51.980;5.848;2023-05-10T05:29:57;13.60;99.90
42019;DHT22;27703;51.980;5.848;2023-05-10T05:32:24;13.70;99.90
42019;DHT22;27703;51.980;5.848;2023-05-10T05:34:50;13.70;99.90
42019;DHT22;27703;51.980;5.848;2023-05-10T05:37:17;13.70;99.90
42019;DHT22;27703;51.980;5.848;2023-05-10T05:39:43;13.70;99.90
42019;DHT22;27703;51.980;5.848;2023-05-10T05:42:09;13.70;99.90
42019;DHT22;27703;51.980;5.848;2023-05-10T05:44:35;13.70;99.90
42019;DHT22;27703;51.980;5.848;2023-05-10T05:47:01;13.80;99.90
42019;DHT22;27703;51.980;5.848;2023-05-10T05:49:26;13.80;99.90
42019;DHT22;27703;51.980;5.848;2023-05-10T05:51:52;13.80;99.90
42019;DHT22;27703;51.980;5.848;2023-05-10T05:54:17;13.80;99.90
42019;DHT22;27703;51.980;5.848;2023-05-10T05:56:43;13.90;99.90
42019;DHT22;27703;51.980;5.848;2023-05-10T05:59:09;13.90;99.90
42019;DHT22;27703;51.980;5.848;2023-05-10T06:01:35;13.90;99.90
42019;DHT22;27703;51.980;5.848;2023-05-10T06:04:01;13.90;99.90
42019;DHT22;27703;51.980;5.848;2023-05-10T06:06:26;13.90;99.90
42019;DHT22;27703;51.980;5.848;2023-05-10T06:08:53;13.90;99.90
42019;DHT22;27703;51.980;5.848;2023-05-10T06:11:19;13.90;99.90
42019;DHT22;27703;51.980;5.848;2023-05-10T06:13:45;13.90;99.90
42019;DHT22;27703;51.980;5.848;2023-05-10T06:16:11;13.90;99.90
42019;DHT22;27703;51.980;5.848;2023-05-10T06:18:37;13.90;99.90
42019;DHT22;27703;51.980;5.848;2023-05-10T06:21:03;13.90;99.90
42019;DHT22;27703;51.980;5.848;2023-05-10T06:23:28;13.90;99.90
42019;DHT22;27703;51.980;5.848;2023-05-10T06:25:54;13.90;99.90
42019;DHT22;27703;51.980;5.848;2023-05-10T06:28:19;13.90;99.90
42019;DHT22;27703;51.980;5.848;2023-05-10T06:30:45;13.90;99.90
42019;DHT22;27703;51.980;5.848;2023-05-10T06:33:10;13.90;99.90
42019;DHT22;27703;51.980;5.848;2023-05-10T06:35:36;13.90;99.90
42019;DHT22;27703;51.980;5.848;2023-05-10T06:38:02;13.90;99.90
42019;DHT22;27703;51.980;5.848;2023-05-10T06:40:27;13.90;99.90
42019;DHT22;27703;51.980;5.848;2023-05-10T06:42:53;13.90;99.90
42019;DHT22;27703;51.980;5.848;2023-05-10T06:45:19;13.90;99.90
42019;DHT22;27703;51.980;5.848;2023-05-10T06:47:44;13.90;99.90
42019;DHT22;27703;51.980;5.848;2023-05-10T06:50:11;13.90;99.90
42019;DHT22;27703;51.980;5.848;2023-05-10T06:52:37;13.90;99.90
42019;DHT22;27703;51.980;5.848;2023-05-10T06:55:06;14.00;99.90
42019;DHT22;27703;51.980;5.848;2023-05-10T06:57:31;14.00;99.90
42019;DHT22;27703;51.980;5.848;2023-05-10T07:00:00;14.00;99.90
42019;DHT22;27703;51.980;5.848;2023-05-10T07:02:26;14.00;99.90
42019;DHT22;27703;51.980;5.848;2023-05-10T07:04:52;14.00;99.90
42019;DHT22;27703;51.980;5.848;2023-05-10T07:07:18;14.00;99.90
42019;DHT22;27703;51.980;5.848;2023-05-10T07:09:44;14.00;99.90
42019;DHT22;27703;51.980;5.848;2023-05-10T07:12:10;14.10;99.90
42019;DHT22;27703;51.980;5.848;2023-05-10T07:14:36;14.20;99.90
42019;DHT22;27703;51.980;5.848;2023-05-10T07:17:02;14.10;99.90
42019;DHT22;27703;51.980;5.848;2023-05-10T07:19:28;14.10;99.90
42019;DHT22;27703;51.980;5.848;2023-05-10T07:21:54;14.20;99.90
42019;DHT22;27703;51.980;5.848;2023-05-10T07:24:20;14.20;99.90
42019;DHT22;27703;51.980;5.848;2023-05-10T07:26:46;14.20;99.90
42019;DHT22;27703;51.980;5.848;2023-05-10T07:29:11;14.20;99.90
42019;DHT22;27703;51.980;5.848;2023-05-10T07:31:37;14.20;99.90
42019;DHT22;27703;51.980;5.848;2023-05-10T07:34:02;14.30;99.90
42019;DHT22;27703;51.980;5.848;2023-05-10T07:36:28;14.40;99.90
42019;DHT22;27703;51.980;5.848;2023-05-10T07:38:54;14.40;99.90
42019;DHT22;27703;51.980;5.848;2023-05-10T07:41:19;14.40;99.90
42019;DHT22;27703;51.980;5.848;2023-05-10T07:43:46;14.40;99.90
42019;DHT22;27703;51.980;5.848;2023-05-10T07:46:12;14.50;99.90
42019;DHT22;27703;51.980;5.848;2023-05-10T07:48:37;14.50;99.90
42019;DHT22;27703;51.980;5.848;2023-05-10T07:51:03;14.50;99.90
42019;DHT22;27703;51.980;5.848;2023-05-10T07:53:28;14.50;99.90
42019;DHT22;27703;51.980;5.848;2023-05-10T07:55:57;14.50;99.90
42019;DHT22;27703;51.980;5.848;2023-05-10T07:58:24;14.50;99.90
42019;DHT22;27703;51.980;5.848;2023-05-10T08:00:49;14.50;99.90
42019;DHT22;27703;51.980;5.848;2023-05-10T08:03:15;14.50;99.90
42019;DHT22;27703;51.980;5.848;2023-05-10T08:05:41;14.50;99.90
42019;DHT22;27703;51.980;5.848;2023-05-10T08:08:06;14.50;99.90
42019;DHT22;27703;51.980;5.848;2023-05-10T08:10:32;14.60;99.90
42019;DHT22;27703;51.980;5.848;2023-05-10T08:12:57;14.60;99.90
42019;DHT22;27703;51.980;5.848;2023-05-10T08:15:24;14.70;99.90
42019;DHT22;27703;51.980;5.848;2023-05-10T08:17:51;14.80;99.90
42019;DHT22;27703;51.980;5.848;2023-05-10T08:20:17;14.90;99.90
42019;DHT22;27703;51.980;5.848;2023-05-10T08:22:45;14.90;99.90
42019;DHT22;27703;51.980;5.848;2023-05-10T08:25:11;15.00;99.90
42019;DHT22;27703;51.980;5.848;2023-05-10T08:27:36;15.00;99.90
42019;DHT22;27703;51.980;5.848;2023-05-10T08:30:02;15.00;99.90
42019;DHT22;27703;51.980;5.848;2023-05-10T08:32:28;15.00;99.90
42019;DHT22;27703;51.980;5.848;2023-05-10T08:34:53;15.00;99.90
42019;DHT22;27703;51.980;5.848;2023-05-10T08:37:19;14.90;99.90
42019;DHT22;27703;51.980;5.848;2023-05-10T08:39:45;14.90;99.90
42019;DHT22;27703;51.980;5.848;2023-05-10T08:42:16;14.90;99.90
42019;DHT22;27703;51.980;5.848;2023-05-10T08:44:45;14.90;99.90
42019;DHT22;27703;51.980;5.848;2023-05-10T08:47:16;14.90;99.90
42019;DHT22;27703;51.980;5.848;2023-05-10T08:49:43;14.90;99.90
42019;DHT22;27703;51.980;5.848;2023-05-10T08:52:12;15.00;99.90
42019;DHT22;27703;51.980;5.848;2023-05-10T08:54:38;15.00;99.90
42019;DHT22;27703;51.980;5.848;2023-05-10T08:57:04;15.00;99.90
42019;DHT22;27703;51.980;5.848;2023-05-10T08:59:30;15.10;99.90
42019;DHT22;27703;51.980;5.848;2023-05-10T09:01:59;15.10;99.90
42019;DHT22;27703;51.980;5.848;2023-05-10T09:04:25;15.20;99.90
42019;DHT22;27703;51.980;5.848;2023-05-10T09:06:51;15.20;99.90
42019;DHT22;27703;51.980;5.848;2023-05-10T09:09:17;15.30;99.90
42019;DHT22;27703;51.980;5.848;2023-05-10T09:11:44;15.40;99.90
42019;DHT22;27703;51.980;5.848;2023-05-10T09:14:11;15.40;99.90
42019;DHT22;27703;51.980;5.848;2023-05-10T09:16:37;15.50;99.90
42019;DHT22;27703;51.980;5.848;2023-05-10T09:19:03;15.50;99.90
42019;DHT22;27703;51.980;5.848;2023-05-10T09:21:29;15.60;99.90
42019;DHT22;27703;51.980;5.848;2023-05-10T09:23:55;15.70;99.90
42019;DHT22;27703;51.980;5.848;2023-05-10T09:26:24;15.80;99.90
42019;DHT22;27703;51.980;5.848;2023-05-10T09:28:55;15.90;99.90
42019;DHT22;27703;51.980;5.848;2023-05-10T09:31:21;15.90;99.90
42019;DHT22;27703;51.980;5.848;2023-05-10T09:33:50;15.80;99.90
42019;DHT22;27703;51.980;5.848;2023-05-10T09:36:16;15.80;99.90
42019;DHT22;27703;51.980;5.848;2023-05-10T09:38:48;15.70;99.90
42019;DHT22;27703;51.980;5.848;2023-05-10T09:41:21;15.70;99.90
42019;DHT22;27703;51.980;5.848;2023-05-10T09:43:47;15.70;99.90
42019;DHT22;27703;51.980;5.848;2023-05-10T09:46:14;15.70;99.90
42019;DHT22;27703;51.980;5.848;2023-05-10T09:48:45;15.70;99.90
42019;DHT22;27703;51.980;5.848;2023-05-10T09:51:25;15.70;99.90
42019;DHT22;27703;51.980;5.848;2023-05-10T09:54:12;15.70;99.90
42019;DHT22;27703;51.980;5.848;2023-05-10T09:56:39;15.70;99.90
42019;DHT22;27703;51.980;5.848;2023-05-10T09:59:07;15.70;99.90
42019;DHT22;27703;51.980;5.848;2023-05-10T10:01:34;15.70;99.90
42019;DHT22;27703;51.980;5.848;2023-05-10T10:04:03;15.60;99.90
42019;DHT22;27703;51.980;5.848;2023-05-10T10:06:29;15.60;99.90
42019;DHT22;27703;51.980;5.848;2023-05-10T10:08:55;15.70;99.90
42019;DHT22;27703;51.980;5.848;2023-05-10T10:11:21;15.70;99.90
42019;DHT22;27703;51.980;5.848;2023-05-10T10:13:49;15.70;99.90
42019;DHT22;27703;51.980;5.848;2023-05-10T10:16:14;15.70;99.90
42019;DHT22;27703;51.980;5.848;2023-05-10T10:18:41;15.80;99.90
42019;DHT22;27703;51.980;5.848;2023-05-10T10:21:07;15.80;99.90
42019;DHT22;27703;51.980;5.848;2023-05-10T10:23:36;15.90;99.90
42019;DHT22;27703;51.980;5.848;2023-05-10T10:26:03;15.90;99.90
42019;DHT22;27703;51.980;5.848;2023-05-10T10:28:56;15.80;99.90
42019;DHT22;27703;51.980;5.848;2023-05-10T10:31:33;15.90;99.90
42019;DHT22;27703;51.980;5.848;2023-05-10T10:34:16;16.00;99.90
42019;DHT22;27703;51.980;5.848;2023-05-10T10:36:47;16.10;99.90
42019;DHT22;27703;51.980;5.848;2023-05-10T10:39:14;16.10;99.90
42019;DHT22;27703;51.980;5.848;2023-05-10T10:47:04;16.20;99.90
42019;DHT22;27703;51.980;5.848;2023-05-10T10:52:26;16.00;99.90
42019;DHT22;27703;51.980;5.848;2023-05-10T10:55:16;16.00;99.90
42019;DHT22;27703;51.980;5.848;2023-05-10T10:57:44;16.00;99.90
42019;DHT22;27703;51.980;5.848;2023-05-10T11:00:26;16.10;99.90
42019;DHT22;27703;51.980;5.848;2023-05-10T11:02:55;16.10;99.90
42019;DHT22;27703;51.980;5.848;2023-05-10T11:07:55;16.20;99.90
42019;DHT22;27703;51.980;5.848;2023-05-10T11:10:25;16.30;99.90
42019;DHT22;27703;51.980;5.848;2023-05-10T11:13:01;16.40;99.90
42019;DHT22;27703;51.980;5.848;2023-05-10T11:15:31;16.40;99.90
42019;DHT22;27703;51.980;5.848;2023-05-10T11:17:58;16.50;99.90
42019;DHT22;27703;51.980;5.848;2023-05-10T11:20:27;16.60;99.90
42019;DHT22;27703;51.980;5.848;2023-05-10T11:23:11;16.70;99.90
42019;DHT22;27703;51.980;5.848;2023-05-10T11:25:45;16.80;99.90
42019;DHT22;27703;51.980;5.848;2023-05-10T11:28:12;16.80;99.90
42019;DHT22;27703;51.980;5.848;2023-05-10T11:30:39;16.80;99.90
42019;DHT22;27703;51.980;5.848;2023-05-10T11:33:06;16.80;99.90
42019;DHT22;27703;51.980;5.848;2023-05-10T11:35:40;16.90;99.90
42019;DHT22;27703;51.980;5.848;2023-05-10T11:38:07;16.90;99.90
42019;DHT22;27703;51.980;5.848;2023-05-10T11:40:33;16.80;99.90
42019;DHT22;27703;51.980;5.848;2023-05-10T11:42:59;16.90;99.90
42019;DHT22;27703;51.980;5.848;2023-05-10T11:45:25;17.10;99.90
42019;DHT22;27703;51.980;5.848;2023-05-10T11:47:51;17.20;99.90
42019;DHT22;27703;51.980;5.848;2023-05-10T11:50:17;17.20;99.90
42019;DHT22;27703;51.980;5.848;2023-05-10T11:52:43;17.20;99.90
42019;DHT22;27703;51.980;5.848;2023-05-10T11:55:09;17.20;99.90
42019;DHT22;27703;51.980;5.848;2023-05-10T11:57:35;17.20;99.90
42019;DHT22;27703;51.980;5.848;2023-05-10T12:00:01;17.30;99.90
42019;DHT22;27703;51.980;5.848;2023-05-10T12:02:29;17.30;99.90
42019;DHT22;27703;51.980;5.848;2023-05-10T12:04:55;17.40;99.90
42019;DHT22;27703;51.980;5.848;2023-05-10T12:07:21;17.50;99.90
42019;DHT22;27703;51.980;5.848;2023-05-10T12:10:06;17.50;99.90
42019;DHT22;27703;51.980;5.848;2023-05-10T12:12:43;17.60;99.90
42019;DHT22;27703;51.980;5.848;2023-05-10T12:15:19;17.60;99.90
42019;DHT22;27703;51.980;5.848;2023-05-10T12:17:46;17.70;99.90
42019;DHT22;27703;51.980;5.848;2023-05-10T12:20:22;17.70;99.90
42019;DHT22;27703;51.980;5.848;2023-05-10T12:22:51;17.80;99.90
42019;DHT22;27703;51.980;5.848;2023-05-10T12:25:19;17.80;99.90
42019;DHT22;27703;51.980;5.848;2023-05-10T12:27:52;17.80;99.90
42019;DHT22;27703;51.980;5.848;2023-05-10T12:30:25;17.80;99.90
42019;DHT22;27703;51.980;5.848;2023-05-10T12:32:52;17.80;99.90
42019;DHT22;27703;51.980;5.848;2023-05-10T12:35:18;17.80;99.90
42019;DHT22;27703;51.980;5.848;2023-05-10T12:37:48;17.90;99.90
42019;DHT22;27703;51.980;5.848;2023-05-10T12:40:14;17.90;99.90
42019;DHT22;27703;51.980;5.848;2023-05-10T12:42:40;17.90;99.90
42019;DHT22;27703;51.980;5.848;2023-05-10T12:45:07;18.00;99.90
42019;DHT22;27703;51.980;5.848;2023-05-10T12:47:33;18.00;99.90
42019;DHT22;27703;51.980;5.848;2023-05-10T12:50:00;18.00;99.90
42019;DHT22;27703;51.980;5.848;2023-05-10T12:52:26;18.00;99.90
42019;DHT22;27703;51.980;5.848;2023-05-10T12:54:53;18.10;99.90
42019;DHT22;27703;51.980;5.848;2023-05-10T12:57:19;18.10;99.90
42019;DHT22;27703;51.980;5.848;2023-05-10T12:59:45;18.20;99.90
42019;DHT22;27703;51.980;5.848;2023-05-10T13:02:11;18.20;99.90
42019;DHT22;27703;51.980;5.848;2023-05-10T13:04:36;18.30;99.90
42019;DHT22;27703;51.980;5.848;2023-05-10T13:07:08;18.40;99.90
42019;DHT22;27703;51.980;5.848;2023-05-10T13:09:34;18.40;99.90
42019;DHT22;27703;51.980;5.848;2023-05-10T13:11:59;18.40;99.90
42019;DHT22;27703;51.980;5.848;2023-05-10T13:14:26;18.30;99.90
42019;DHT22;27703;51.980;5.848;2023-05-10T13:16:51;18.30;99.90
42019;DHT22;27703;51.980;5.848;2023-05-10T13:19:17;18.30;99.90
42019;DHT22;27703;51.980;5.848;2023-05-10T13:21:43;18.30;99.90
42019;DHT22;27703;51.980;5.848;2023-05-10T13:24:12;18.20;99.90
42019;DHT22;27703;51.980;5.848;2023-05-10T13:26:39;18.10;99.90
42019;DHT22;27703;51.980;5.848;2023-05-10T13:29:05;18.00;99.90
42019;DHT22;27703;51.980;5.848;2023-05-10T13:31:31;17.90;99.90
42019;DHT22;27703;51.980;5.848;2023-05-10T13:33:56;17.90;99.90
42019;DHT22;27703;51.980;5.848;2023-05-10T13:36:22;17.80;99.90
42019;DHT22;27703;51.980;5.848;2023-05-10T13:38:48;17.80;99.90
42019;DHT22;27703;51.980;5.848;2023-05-10T13:41:13;17.60;99.90
42019;DHT22;27703;51.980;5.848;2023-05-10T13:43:39;17.50;99.90
42019;DHT22;27703;51.980;5.848;2023-05-10T13:46:05;17.30;99.90
42019;DHT22;27703;51.980;5.848;2023-05-10T13:48:30;17.20;99.90
42019;DHT22;27703;51.980;5.848;2023-05-10T13:50:56;17.10;99.90
42019;DHT22;27703;51.980;5.848;2023-05-10T13:53:22;16.90;99.90
42019;DHT22;27703;51.980;5.848;2023-05-10T13:55:48;16.80;99.90
42019;DHT22;27703;51.980;5.848;2023-05-10T13:58:13;16.70;99.90
42019;DHT22;27703;51.980;5.848;2023-05-10T14:00:39;16.70;99.90
42019;DHT22;27703;51.980;5.848;2023-05-10T14:03:04;16.60;99.90
42019;DHT22;27703;51.980;5.848;2023-05-10T14:05:31;16.50;99.90
42019;DHT22;27703;51.980;5.848;2023-05-10T14:07:57;16.50;99.90
42019;DHT22;27703;51.980;5.848;2023-05-10T14:10:22;16.40;99.90
42019;DHT22;27703;51.980;5.848;2023-05-10T14:12:49;16.40;99.90
42019;DHT22;27703;51.980;5.848;2023-05-10T14:15:15;16.50;99.90
42019;DHT22;27703;51.980;5.848;2023-05-10T14:17:41;16.50;99.90
42019;DHT22;27703;51.980;5.848;2023-05-10T14:20:07;16.60;99.90
42019;DHT22;27703;51.980;5.848;2023-05-10T14:22:32;16.70;99.90
42019;DHT22;27703;51.980;5.848;2023-05-10T14:24:58;16.80;99.90
42019;DHT22;27703;51.980;5.848;2023-05-10T14:27:24;16.80;99.90
42019;DHT22;27703;51.980;5.848;2023-05-10T14:29:49;16.90;99.90
42019;DHT22;27703;51.980;5.848;2023-05-10T14:32:15;16.90;99.90
42019;DHT22;27703;51.980;5.848;2023-05-10T14:34:40;16.90;99.90
42019;DHT22;27703;51.980;5.848;2023-05-10T14:37:06;16.90;99.90
42019;DHT22;27703;51.980;5.848;2023-05-10T14:39:32;16.90;99.90
42019;DHT22;27703;51.980;5.848;2023-05-10T14:41:58;16.80;99.90
42019;DHT22;27703;51.980;5.848;2023-05-10T14:44:24;16.80;99.90
42019;DHT22;27703;51.980;5.848;2023-05-10T14:46:49;16.90;99.90
42019;DHT22;27703;51.980;5.848;2023-05-10T14:49:15;16.80;99.90
42019;DHT22;27703;51.980;5.848;2023-05-10T14:51:40;16.80;99.90
42019;DHT22;27703;51.980;5.848;2023-05-10T14:54:06;16.80;99.90
42019;DHT22;27703;51.980;5.848;2023-05-10T14:56:32;16.80;99.90
42019;DHT22;27703;51.980;5.848;2023-05-10T14:58:57;17.00;99.90
42019;DHT22;27703;51.980;5.848;2023-05-10T15:01:23;17.40;99.90
42019;DHT22;27703;51.980;5.848;2023-05-10T15:03:49;17.70;99.90
42019;DHT22;27703;51.980;5.848;2023-05-10T15:06:15;17.70;99.90
42019;DHT22;27703;51.980;5.848;2023-05-10T15:08:41;17.80;99.90
42019;DHT22;27703;51.980;5.848;2023-05-10T15:11:07;17.70;99.90
42019;DHT22;27703;51.980;5.848;2023-05-10T15:13:32;17.60;99.90
42019;DHT22;27703;51.980;5.848;2023-05-10T15:15:58;17.50;99.90
42019;DHT22;27703;51.980;5.848;2023-05-10T15:18:24;17.50;99.90
42019;DHT22;27703;51.980;5.848;2023-05-10T15:20:49;17.50;99.90
42019;DHT22;27703;51.980;5.848;2023-05-10T15:23:15;17.40;99.90
42019;DHT22;27703;51.980;5.848;2023-05-10T15:25:40;17.40;99.90
42019;DHT22;27703;51.980;5.848;2023-05-10T15:28:06;17.30;99.90
42019;DHT22;27703;51.980;5.848;2023-05-10T15:30:32;17.20;99.90
42019;DHT22;27703;51.980;5.848;2023-05-10T15:32:57;17.20;99.90
42019;DHT22;27703;51.980;5.848;2023-05-10T15:35:23;17.10;99.90
42019;DHT22;27703;51.980;5.848;2023-05-10T15:37:48;17.10;99.90
42019;DHT22;27703;51.980;5.848;2023-05-10T15:40:15;17.10;99.90
42019;DHT22;27703;51.980;5.848;2023-05-10T15:42:40;17.10;99.90
42019;DHT22;27703;51.980;5.848;2023-05-10T15:45:06;17.10;99.90
42019;DHT22;27703;51.980;5.848;2023-05-10T15:47:32;17.10;99.90
42019;DHT22;27703;51.980;5.848;2023-05-10T15:49:58;17.10;99.90
42019;DHT22;27703;51.980;5.848;2023-05-10T15:52:23;17.10;99.90